Red Dog-Squaw
 (TAHOE) 6200 ft         Display wind rose
     Date    Time     Temp MxTp MnTp DewP  RH Spd Dir Gst
2022 May 28 07:45 pm    43   53   40   39  86   9 345  17
2022 May 28 07:30 pm    44    -    -   39  83  10 349  18
2022 May 28 07:15 pm    45   55   40   40  83  15   8  26
2022 May 28 07:00 pm    45   57   40   40  81  13   2  20
2022 May 28 06:45 pm    45   57   40   40  81  12 350  20
2022 May 28 06:30 pm    46   57   40   40  80   9   6  20
2022 May 28 06:15 pm    45   58   40   41  86  13 355  23
2022 May 28 06:00 pm    45   58   40   41  85  11  14  19
2022 May 28 05:45 pm    44   58   40   42  92  13  10  20
2022 May 28 05:30 pm    44   59   40   41  89  13   5  22
2022 May 28 05:15 pm    45   59   40   41  86  15   6  21
2022 May 28 05:00 pm    46   60   40   41  84  13  11  21
2022 May 28 04:45 pm    46   61   40   41  84  15  10  24
2022 May 28 04:30 pm    46   61   40   41  83  15  11  23
2022 May 28 04:15 pm    47   62   40   41  79  15   9  26
2022 May 28 04:00 pm    48   62   40   41  77  14  13  25
2022 May 28 03:45 pm    49   62   40   41  75  14   -  23
2022 May 28 03:30 pm    48   63   40   40  74  15   3  24
2022 May 28 03:15 pm    49   63   40   40  70  15   4  23
2022 May 28 03:00 pm    49   63   40   39  67  15 359  22
2022 May 28 02:45 pm    51   63   40   38  62  16 356  24
2022 May 28 02:30 pm    51   63   40   37  58  16 357  24
2022 May 28 02:15 pm    52   63   40   38  59  17  10  28
2022 May 28 02:00 pm    51   64   40   36  56  16  13  26
2022 May 28 01:45 pm    52   64   40   38  60  15   9  22
2022 May 28 01:30 pm    50   64   40   39  64  16  16  24
2022 May 28 01:15 pm    51   64   40   39  63  14  13  27
2022 May 28 01:00 pm    52   64   40   40  63  13  15  20
2022 May 28 12:45 pm    52   65   40   39  61  13  15  20
2022 May 28 12:30 pm    52   65   40   39  61  14  27  23
2022 May 28 12:15 pm    52   65   40   40  63  14  19  22
2022 May 28 12:00 pm    53   65   40   41  65  14  22  22
2022 May 28 11:45 am    51   65   40   40  66  13  16  22
2022 May 28 11:30 am    51   65   40   40  64  13  10  20
2022 May 28 11:15 am    52   65   40   41  67  13  18  18
2022 May 28 11:00 am    50   65   40   40  68  12  17  20
2022 May 28 10:45 am    51   65   40   41  68  10  17  16
2022 May 28 10:30 am    49   65   40   40  69   9  18  16
2022 May 28 10:15 am    50   65   40   41  71   5  11  19
2022 May 28 10:00 am    49   65   40   39  67   6 357  18
2022 May 28 09:45 am    49   65   40   40  70   7 348  15
2022 May 28 09:30 am    49   65   40   39  69   6   8  19
2022 May 28 09:15 am    48   65   40   39  71   4   3  13
2022 May 28 09:00 am    46   65   40   38  72   6 347  13
2022 May 28 08:45 am    46   65   40   38  72   5 345  17
2022 May 28 08:30 am    45   65   40   37  72   5 350  13
2022 May 28 08:15 am    45   65   40   37  73   3 358   8
2022 May 28 08:00 am    44   65   40   37  75   2  50   9
2022 May 28 07:45 am    44   65   40   38  78   2 332   6
2022 May 28 07:30 am    43   65   40   37  78   4   9   9
2022 May 28 07:15 am    43   65   40   37  82   4 358  11
2022 May 28 07:00 am    42   65   40   37  83   4 339  10
2022 May 28 06:45 am    42   65   40   37  84   2 312   5
2022 May 28 06:30 am    41   65   40   37  84   3 342   9
2022 May 28 06:15 am    41   65   40   37  84   4 350  10
2022 May 28 06:00 am    41   65   40   36  83   3 326  13
2022 May 28 05:45 am    41   65   40   36  83   5 333  10
2022 May 28 05:30 am    41   65   40   35  81   6 345  16
2022 May 28 05:15 am    40   65   40   35  83   7 346  13
2022 May 28 05:00 am    40   65   40   35  82   9 352  18
2022 May 28 04:45 am    40   65   40   35  80  11 357  19
2022 May 28 04:30 am    41   65   40   35  79   8 350  14
2022 May 28 04:15 am    41   65   40   34  78  11 352  20
2022 May 28 04:00 am    41   65   40   35  77  11 355  21
2022 May 28 03:45 am    41   65   40   35  78  13   1  21
2022 May 28 03:30 am    42   65   40   35  75  13   1  22
2022 May 28 03:15 am    43   65   40   34  71  14  13  24
2022 May 28 03:00 am    43   65   40   36  76  14  10  25
2022 May 28 02:45 am    44   65   40   36  73  14  12  26
2022 May 28 02:30 am    44   65   40   36  75  13  12  20
2022 May 28 02:15 am    45   65   40   36  71  14  11  22
2022 May 28 02:00 am    45   65   40   37  74  13   8  22
2022 May 28 01:45 am    45   65   40   36  69  16  12  26
2022 May 28 01:30 am    48   65   40   36  64  14  10  22
2022 May 28 01:15 am    49   65   40   36  60  12   3  20
2022 May 28 01:00 am    49   65   40   35  59  11  14  20
2022 May 28 12:45 am    49   65   40   34  56  14  11  22
2022 May 28 12:30 am    49   65   40   33  55  13  14  23
2022 May 28 12:15 am    49   65   40   34  56  13   0  22
2022 May 28 12:00 am    49   65   40   34  55  13 360  19
2022 May 27 11:45 pm    49   65   40   34  55  13 353  23
2022 May 27 11:30 pm    49   65   40   33  54  12 355  20
2022 May 27 11:15 pm    50   65   40   34  55  13 349  21
2022 May 27 11:00 pm    50   65   40   34  55  12 354  18
2022 May 27 10:45 pm    50   65   40   35  57  11 341  17
2022 May 27 10:30 pm    50   65   40   35  55  11 356  18
2022 May 27 10:15 pm    50   65   40   36  59  10 351  18
2022 May 27 10:00 pm    50   65   40   35  56  11 355  18
2022 May 27 09:45 pm    50   65   40   35  55  10 349  16
2022 May 27 09:30 pm    51   65   40   35  55   8 352  16
2022 May 27 09:15 pm    51   65   40   35  55   8 337  14
2022 May 27 09:00 pm    51   65   40   35  55   7 347  14
2022 May 27 08:45 pm    51   65   40   35  54   7 350  12
2022 May 27 08:30 pm    51   65   40   36  57   5 335  11
2022 May 27 08:15 pm    52   65   40   36  55   5 339  10
2022 May 27 08:00 pm    53   65   40   36  52   5 338  12
2022 May 27 07:45 pm    53   65   40   35  50   5 339  11
2022 May 27 07:30 pm    54   65   40   35  48   6  16  12
2022 May 27 07:15 pm    55   65   40   36  49   6   1  10
2022 May 27 07:00 pm    57   65   40   36  46   7   0  14
2022 May 27 06:45 pm    56   65   40   36  46   9 359  16
2022 May 27 06:30 pm    57   66   40   35  44   8  11  13
2022 May 27 06:15 pm    58   66   40   36  44   8 356  17
2022 May 27 06:00 pm    58   67   40   35  42   7  21  15
2022 May 27 05:45 pm    58   67   40   37  44   8   5  14
2022 May 27 05:30 pm    59    -    -   36  42   7   0  12
2022 May 27 05:15 pm    59   67   40   37  44   6 353  12
2022 May 27 05:00 pm    60   69   40   37  42   6   8  13
2022 May 27 04:45 pm    61   69   40   38  44   7  16  11
2022 May 27 04:30 pm    60   69   40   36  41   7 359  18
2022 May 27 04:15 pm    62   69   40   38  41   8   3  17
2022 May 27 04:00 pm    61   69   40   37  42  11   6  17
2022 May 27 03:45 pm    62   69   40   39  42  10   8  19
2022 May 27 03:30 pm    63   69   40   41  44  11   3  21
2022 May 27 03:15 pm    62   69   40   39  44  13  14  21
2022 May 27 03:00 pm    63   71   40   39  42  13  17  27
2022 May 27 02:45 pm    62   71   40   38  40  16  18  24
2022 May 27 02:30 pm    63   71   40   39  41  13  12  25
2022 May 27 02:15 pm    62   71   40   38  41  13  14  24
2022 May 27 02:00 pm    64   71   40   38  38  14  12  24
2022 May 27 01:45 pm    63   71   40   35  35  13   8  24
2022 May 27 01:30 pm    64   71   40   36  36  14  15  24
2022 May 27 01:15 pm    64   71   40   36  36  15  14  23
2022 May 27 01:00 pm    64   71   40   34  32  12  13  21
2022 May 27 12:45 pm    65   71   40   34  31  11  22  20
2022 May 27 12:30 pm    64   71   40   34  32  11  30  22
2022 May 27 12:15 pm    64   71   40   33  31   9  19  18
2022 May 27 12:00 pm    64   71   40   33  31   8  21  19
2022 May 27 11:45 am    64   71   40   33  31   6  33  17
2022 May 27 11:30 am    64   71   40   33  32   5  37  13
2022 May 27 11:15 am    63   71   40   31  31   9  17  19
2022 May 27 11:00 am    63   71   40   31  30   8  20  20
2022 May 27 10:45 am    62   71   40   30  30   7  17  13
2022 May 27 10:30 am    61    -    -   28  28   6  31  15
2022 May 27 10:15 am    61   71   40   25  25   3 349  15
2022 May 27 10:00 am    61   71   40   24  24   3  58   8
2022 May 27 09:45 am    61   71   40   23  23   2  30   7
2022 May 27 09:30 am    59   71   40   22  24   3  15  11
2022 May 27 09:15 am    58   71   40   24  27   5 355  14
2022 May 27 09:00 am    52   71   40   28  40   1 202   4
2022 May 27 08:45 am    53   71   40   37  56   1 242   6
2022 May 27 08:30 am    52   71   40   28  40   2 342   5
2022 May 27 08:15 am    54   71   40   22  28   3 355   8
2022 May 27 08:00 am    47   71   40   38  70   1 193   2
2022 May 27 07:45 am    47   71   40   36  67   1 188   3
2022 May 27 07:30 am    47   71   40   36  65   1 346   3
2022 May 27 07:15 am    44   71   40   34  69   0 318   2
2022 May 27 07:00 am    42   71   40   33  71   0 210   2
2022 May 27 06:45 am    42   71   40   33  72   0 226   2
2022 May 27 06:30 am    42   71   40   33  70   1 173   3
2022 May 27 06:15 am    41   71   40   32  70   1 329   3
2022 May 27 06:00 am    40   71   40   32  71   0 288   2
2022 May 27 05:45 am    40   71   40   32  73   1 227   2
2022 May 27 05:30 am    41   71   41   32  71   0 184   2
2022 May 27 05:15 am    41   71   41   32  70   1 302   3
2022 May 27 05:00 am    41   71   41   32  70   0 224   2
2022 May 27 04:45 am    41   71   41   31  68   0 323   2
2022 May 27 04:30 am    41   71   41   31  68   0 256   1
2022 May 27 04:15 am    42   71   42   31  65   0 313   2
2022 May 27 04:00 am    42   71   42   32  66   0 318   2
2022 May 27 03:45 am    42   71   42   32  67   0 320   1
2022 May 27 03:30 am    43   71   43   32  66   0 271   2
2022 May 27 03:15 am    43   71   43   31  64   0 277   2
2022 May 27 03:00 am    43   71   43   31  61   0 249   2
2022 May 27 02:45 am    44   71   43   31  62   0 198   2
2022 May 27 02:30 am    45   71   43   31  58   1 346   3
2022 May 27 02:15 am    45   71   43   32  61   0 302   1
2022 May 27 02:00 am    45   71   43   32  61   0 254   1
2022 May 27 01:45 am    45   71   43   31  58   1 262   2
2022 May 27 01:30 am    46   71   43   31  56   2 277   4
2022 May 27 01:15 am    46   71   43   31  56   1 325   4
2022 May 27 01:00 am    47   71   43   32  56   1 312   3
2022 May 27 12:45 am    47   71   43   32  55   1 240   2
2022 May 27 12:30 am    48   71   43   32  53   1 277   4
2022 May 27 12:15 am    48   71   43   32  53   2 229   5
2022 May 27 12:00 am    50   71   43   32  51   1 239   4
2022 May 26 11:45 pm    50   71   43   31  47   1 251   3
2022 May 26 11:30 pm    51   71   43   31  47   1 179   2
2022 May 26 11:15 pm    51   71   43   31  45   1 201   2
2022 May 26 11:00 pm    53   71   43   30  42   1 239   3
2022 May 26 10:45 pm    56   71   43   29  36   2 278   6
2022 May 26 10:30 pm    57   71   43   27  31   3 305   8
2022 May 26 10:15 pm    57   71   43   28  33   5 313   9
2022 May 26 10:00 pm    58   71   43   27  31   3 308   7
2022 May 26 09:45 pm    58   71   43   28  32   3 312   6
2022 May 26 09:30 pm    58   71   43   29  33   3 309   8
2022 May 26 09:15 pm    59   71   43   30  33   4 314   8
2022 May 26 09:00 pm    58   71   43   32  37   2 305   6
2022 May 26 08:45 pm    58   71   43   33  38   3 310   6
2022 May 26 08:30 pm    59   71   43   33  37   3 306   7
2022 May 26 08:15 pm    59   71   43   35  40   3 307   8
2022 May 26 08:00 pm    59   71   43   34  39   3 306   7
2022 May 26 07:45 pm    60   71   43   34  36   3 320   7
2022 May 26 07:30 pm    61   71   43   33  35   6 336  13
2022 May 26 07:15 pm    62   71   43   35  36   5 333  13
2022 May 26 07:00 pm    63   71   43   34  33   5 355  10